sensor_id;sensor_type;location;lat;lon;timestamp;pressure;altitude;pressure_sealevel;temperature;humidity
45323;BME280;31382;50.200;8.674;2023-04-01T00:03:00;98553.94;;;12.77;67.85
45323;BME280;31382;50.200;8.674;2023-04-01T00:08:02;98549.84;;;12.74;67.34
45323;BME280;31382;50.200;8.674;2023-04-01T00:13:04;98547.50;;;12.78;67.43
45323;BME280;31382;50.200;8.674;2023-04-01T00:18:05;98550.88;;;12.73;67.69
45323;BME280;31382;50.200;8.674;2023-04-01T00:23:07;98546.44;;;12.55;67.46
45323;BME280;31382;50.200;8.674;2023-04-01T00:28:09;98550.41;;;12.41;67.91
45323;BME280;31382;50.200;8.674;2023-04-01T00:33:11;98542.88;;;12.31;68.22
45323;BME280;31382;50.200;8.674;2023-04-01T00:38:13;98528.25;;;12.27;68.29
45323;BME280;31382;50.200;8.674;2023-04-01T00:43:19;98554.72;;;12.30;68.38
45323;BME280;31382;50.200;8.674;2023-04-01T00:48:27;98547.81;;;12.34;68.17
45323;BME280;31382;50.200;8.674;2023-04-01T00:53:30;98534.00;;;12.42;67.51
45323;BME280;31382;50.200;8.674;2023-04-01T00:58:35;98538.25;;;12.50;67.37
45323;BME280;31382;50.200;8.674;2023-04-01T01:03:39;98536.34;;;12.50;67.53
45323;BME280;31382;50.200;8.674;2023-04-01T01:14:11;98535.88;;;12.54;67.08
45323;BME280;31382;50.200;8.674;2023-04-01T01:25:24;98543.97;;;12.54;66.96
45323;BME280;31382;50.200;8.674;2023-04-01T01:30:41;98542.69;;;12.56;66.77
45323;BME280;31382;50.200;8.674;2023-04-01T01:35:48;98552.41;;;12.57;66.70
45323;BME280;31382;50.200;8.674;2023-04-01T01:40:52;98550.53;;;12.58;66.34
45323;BME280;31382;50.200;8.674;2023-04-01T01:45:57;98551.38;;;12.58;66.59
45323;BME280;31382;50.200;8.674;2023-04-01T01:51:01;98560.25;;;12.59;66.63
45323;BME280;31382;50.200;8.674;2023-04-01T01:56:03;98553.13;;;12.53;66.91
45323;BME280;31382;50.200;8.674;2023-04-01T02:01:07;98544.31;;;12.45;66.24
45323;BME280;31382;50.200;8.674;2023-04-01T02:06:13;98547.59;;;12.47;66.46
45323;BME280;31382;50.200;8.674;2023-04-01T02:11:17;98551.47;;;12.52;66.62
45323;BME280;31382;50.200;8.674;2023-04-01T02:16:34;98534.97;;;12.48;66.34
45323;BME280;31382;50.200;8.674;2023-04-01T02:21:38;98541.03;;;12.43;66.85
45323;BME280;31382;50.200;8.674;2023-04-01T02:26:40;98533.44;;;12.40;66.50
45323;BME280;31382;50.200;8.674;2023-04-01T02:31:42;98529.41;;;12.31;66.71
45323;BME280;31382;50.200;8.674;2023-04-01T02:36:44;98524.47;;;12.28;66.37
45323;BME280;31382;50.200;8.674;2023-04-01T02:41:46;98530.81;;;12.34;66.56
45323;BME280;31382;50.200;8.674;2023-04-01T02:46:47;98525.56;;;12.27;66.52
45323;BME280;31382;50.200;8.674;2023-04-01T02:51:48;98526.47;;;12.21;67.05
45323;BME280;31382;50.200;8.674;2023-04-01T02:56:50;98540.66;;;12.28;66.87
45323;BME280;31382;50.200;8.674;2023-04-01T03:01:51;98521.09;;;12.21;66.63
45323;BME280;31382;50.200;8.674;2023-04-01T03:06:53;98531.84;;;12.09;67.12
45323;BME280;31382;50.200;8.674;2023-04-01T03:11:54;98545.97;;;12.04;67.66
45323;BME280;31382;50.200;8.674;2023-04-01T03:16:56;98543.34;;;11.86;68.01
45323;BME280;31382;50.200;8.674;2023-04-01T03:21:57;98543.59;;;11.66;69.08
45323;BME280;31382;50.200;8.674;2023-04-01T03:26:58;98549.16;;;11.52;69.13
45323;BME280;31382;50.200;8.674;2023-04-01T03:32:00;98546.41;;;11.41;69.73
45323;BME280;31382;50.200;8.674;2023-04-01T03:37:01;98532.16;;;11.22;70.04
45323;BME280;31382;50.200;8.674;2023-04-01T03:42:03;98550.63;;;11.18;70.36
45323;BME280;31382;50.200;8.674;2023-04-01T03:47:04;98549.81;;;11.18;70.76
45323;BME280;31382;50.200;8.674;2023-04-01T03:52:09;98538.88;;;11.13;70.54
45323;BME280;31382;50.200;8.674;2023-04-01T03:57:10;98537.59;;;11.15;70.79
45323;BME280;31382;50.200;8.674;2023-04-01T04:02:12;98541.06;;;11.22;70.51
45323;BME280;31382;50.200;8.674;2023-04-01T04:07:13;98544.63;;;11.35;70.15
45323;BME280;31382;50.200;8.674;2023-04-01T04:12:15;98538.44;;;11.34;70.19
45323;BME280;31382;50.200;8.674;2023-04-01T04:17:16;98547.38;;;11.09;71.27
45323;BME280;31382;50.200;8.674;2023-04-01T04:22:17;98543.50;;;10.87;72.22
45323;BME280;31382;50.200;8.674;2023-04-01T04:27:19;98543.63;;;10.74;72.47
45323;BME280;31382;50.200;8.674;2023-04-01T04:32:20;98541.44;;;10.64;72.93
45323;BME280;31382;50.200;8.674;2023-04-01T04:37:22;98532.41;;;10.58;73.16
45323;BME280;31382;50.200;8.674;2023-04-01T04:42:23;98529.41;;;10.48;73.80
45323;BME280;31382;50.200;8.674;2023-04-01T04:47:24;98531.09;;;10.42;74.15
45323;BME280;31382;50.200;8.674;2023-04-01T04:52:26;98526.22;;;10.32;74.71
45323;BME280;31382;50.200;8.674;2023-04-01T04:57:27;98526.66;;;10.29;74.74
45323;BME280;31382;50.200;8.674;2023-04-01T05:02:29;98531.84;;;10.31;74.97
45323;BME280;31382;50.200;8.674;2023-04-01T05:07:30;98538.63;;;10.34;75.15
45323;BME280;31382;50.200;8.674;2023-04-01T05:12:32;98532.59;;;10.38;75.06
45323;BME280;31382;50.200;8.674;2023-04-01T05:17:37;98539.81;;;10.38;75.32
45323;BME280;31382;50.200;8.674;2023-04-01T05:22:38;98537.22;;;10.31;75.96
45323;BME280;31382;50.200;8.674;2023-04-01T05:27:40;98536.75;;;10.34;75.36
45323;BME280;31382;50.200;8.674;2023-04-01T05:32:41;98539.44;;;10.34;76.04
45323;BME280;31382;50.200;8.674;2023-04-01T05:37:44;98531.16;;;10.36;75.84
45323;BME280;31382;50.200;8.674;2023-04-01T05:42:45;98529.91;;;10.38;76.07
45323;BME280;31382;50.200;8.674;2023-04-01T05:47:47;98531.59;;;10.32;76.23
45323;BME280;31382;50.200;8.674;2023-04-01T05:52:48;98534.53;;;10.31;76.46
45323;BME280;31382;50.200;8.674;2023-04-01T05:57:50;98537.88;;;10.20;77.01
45323;BME280;31382;50.200;8.674;2023-04-01T06:02:51;98543.47;;;10.18;77.22
45323;BME280;31382;50.200;8.674;2023-04-01T06:08:06;98536.00;;;10.20;76.90
45323;BME280;31382;50.200;8.674;2023-04-01T06:24:22;98534.31;;;10.26;77.03
45323;BME280;31382;50.200;8.674;2023-04-01T06:35:00;98548.75;;;10.31;76.78
45323;BME280;31382;50.200;8.674;2023-04-01T06:51:27;98537.06;;;10.44;77.26
45323;BME280;31382;50.200;8.674;2023-04-01T06:56:32;98540.59;;;10.45;77.31
45323;BME280;31382;50.200;8.674;2023-04-01T07:01:39;98538.06;;;10.50;77.05
45323;BME280;31382;50.200;8.674;2023-04-01T07:06:48;98541.31;;;10.59;77.10
45323;BME280;31382;50.200;8.674;2023-04-01T07:11:56;98547.81;;;10.69;76.59
45323;BME280;31382;50.200;8.674;2023-04-01T07:17:17;98550.34;;;10.64;76.76
45323;BME280;31382;50.200;8.674;2023-04-01T07:22:35;98558.56;;;10.69;76.64
45323;BME280;31382;50.200;8.674;2023-04-01T07:27:37;98553.56;;;10.73;76.77
45323;BME280;31382;50.200;8.674;2023-04-01T07:32:42;98548.50;;;10.83;76.39
45323;BME280;31382;50.200;8.674;2023-04-01T07:37:56;98554.19;;;10.94;76.92
45323;BME280;31382;50.200;8.674;2023-04-01T07:48:45;98573.13;;;11.24;76.87
45323;BME280;31382;50.200;8.674;2023-04-01T07:54:26;98570.03;;;11.39;76.99
45323;BME280;31382;50.200;8.674;2023-04-01T08:00:39;98571.16;;;11.49;76.41
45323;BME280;31382;50.200;8.674;2023-04-01T08:05:27;98573.31;;;11.59;75.97
45323;BME280;31382;50.200;8.674;2023-04-01T08:10:35;98587.75;;;11.77;76.21
45323;BME280;31382;50.200;8.674;2023-04-01T08:15:59;98588.97;;;11.99;75.61
45323;BME280;31382;50.200;8.674;2023-04-01T08:21:17;98592.88;;;12.15;75.67
45323;BME280;31382;50.200;8.674;2023-04-01T08:26:32;98593.19;;;12.07;75.60
45323;BME280;31382;50.200;8.674;2023-04-01T08:37:00;98595.09;;;12.18;74.51
45323;BME280;31382;50.200;8.674;2023-04-01T08:53:28;98587.56;;;12.50;74.57
45323;BME280;31382;50.200;8.674;2023-04-01T09:04:16;98597.44;;;12.68;74.06
45323;BME280;31382;50.200;8.674;2023-04-01T09:15:23;98608.22;;;12.68;74.39
45323;BME280;31382;50.200;8.674;2023-04-01T09:20:44;98613.81;;;12.67;74.19
45323;BME280;31382;50.200;8.674;2023-04-01T09:31:32;98621.78;;;12.74;74.10
45323;BME280;31382;50.200;8.674;2023-04-01T09:36:45;98614.31;;;12.76;73.88
45323;BME280;31382;50.200;8.674;2023-04-01T09:47:25;98622.16;;;13.01;74.12
45323;BME280;31382;50.200;8.674;2023-04-01T09:52:31;98631.56;;;13.10;73.81
45323;BME280;31382;50.200;8.674;2023-04-01T10:03:10;98634.25;;;12.86;74.33
45323;BME280;31382;50.200;8.674;2023-04-01T10:13:49;98643.38;;;12.74;74.33
45323;BME280;31382;50.200;8.674;2023-04-01T10:19:15;98647.69;;;12.63;74.55
45323;BME280;31382;50.200;8.674;2023-04-01T10:35:18;98645.75;;;12.40;75.84
45323;BME280;31382;50.200;8.674;2023-04-01T10:46:19;98655.97;;;12.49;75.89
45323;BME280;31382;50.200;8.674;2023-04-01T10:51:59;98648.84;;;12.55;76.33
45323;BME280;31382;50.200;8.674;2023-04-01T11:13:53;98644.16;;;12.50;77.13
45323;BME280;31382;50.200;8.674;2023-04-01T11:34:50;98662.63;;;12.89;76.67
45323;BME280;31382;50.200;8.674;2023-04-01T11:40:20;98661.19;;;12.75;77.45
45323;BME280;31382;50.200;8.674;2023-04-01T11:45:46;98668.56;;;12.67;77.31
45323;BME280;31382;50.200;8.674;2023-04-01T11:51:18;98661.06;;;12.69;76.71
45323;BME280;31382;50.200;8.674;2023-04-01T12:01:44;98667.22;;;13.12;76.22
45323;BME280;31382;50.200;8.674;2023-04-01T12:06:53;98682.63;;;13.35;75.92
45323;BME280;31382;50.200;8.674;2023-04-01T12:12:23;98678.47;;;13.56;75.69
45323;BME280;31382;50.200;8.674;2023-04-01T12:17:53;98680.09;;;13.81;75.62
45323;BME280;31382;50.200;8.674;2023-04-01T12:23:19;98690.28;;;13.91;75.31
45323;BME280;31382;50.200;8.674;2023-04-01T12:39:32;98702.63;;;13.86;74.95
45323;BME280;31382;50.200;8.674;2023-04-01T12:45:11;98699.03;;;13.57;75.40
45323;BME280;31382;50.200;8.674;2023-04-01T12:50:38;98707.22;;;13.03;77.02
45323;BME280;31382;50.200;8.674;2023-04-01T12:55:44;98712.78;;;12.78;77.68
45323;BME280;31382;50.200;8.674;2023-04-01T13:06:22;98713.28;;;12.87;77.58
45323;BME280;31382;50.200;8.674;2023-04-01T13:28:15;98724.00;;;13.17;78.54
45323;BME280;31382;50.200;8.674;2023-04-01T13:44:09;98723.09;;;13.71;78.00
45323;BME280;31382;50.200;8.674;2023-04-01T13:49:24;98724.31;;;14.03;77.59
45323;BME280;31382;50.200;8.674;2023-04-01T13:54:53;98712.09;;;14.13;77.43
45323;BME280;31382;50.200;8.674;2023-04-01T14:05:49;98706.47;;;14.02;76.58
45323;BME280;31382;50.200;8.674;2023-04-01T14:11:07;98720.38;;;13.82;76.99
45323;BME280;31382;50.200;8.674;2023-04-01T14:26:57;98731.28;;;13.87;76.15
45323;BME280;31382;50.200;8.674;2023-04-01T14:32:18;98740.94;;;13.72;76.26
45323;BME280;31382;50.200;8.674;2023-04-01T14:43:20;98750.06;;;13.94;75.45
45323;BME280;31382;50.200;8.674;2023-04-01T14:48:31;98769.69;;;13.78;75.68
45323;BME280;31382;50.200;8.674;2023-04-01T14:53:50;98769.06;;;13.28;77.34
45323;BME280;31382;50.200;8.674;2023-04-01T14:58:57;98777.41;;;13.39;77.30
45323;BME280;31382;50.200;8.674;2023-04-01T15:04:23;98772.59;;;13.29;77.36
45323;BME280;31382;50.200;8.674;2023-04-01T15:14:57;98778.16;;;13.04;77.41
45323;BME280;31382;50.200;8.674;2023-04-01T15:25:26;98778.53;;;12.77;78.26
45323;BME280;31382;50.200;8.674;2023-04-01T15:31:01;98789.06;;;12.67;78.97
45323;BME280;31382;50.200;8.674;2023-04-01T15:41:20;98799.19;;;12.53;79.62
45323;BME280;31382;50.200;8.674;2023-04-01T15:46:48;98815.06;;;12.61;79.18
45323;BME280;31382;50.200;8.674;2023-04-01T16:19:07;98836.47;;;13.17;77.64
45323;BME280;31382;50.200;8.674;2023-04-01T16:24:31;98844.50;;;13.23;77.43
45323;BME280;31382;50.200;8.674;2023-04-01T16:29:47;98841.00;;;13.35;76.81
45323;BME280;31382;50.200;8.674;2023-04-01T16:40:43;98851.41;;;13.73;76.62
45323;BME280;31382;50.200;8.674;2023-04-01T16:45:54;98866.09;;;13.77;76.28
45323;BME280;31382;50.200;8.674;2023-04-01T16:51:10;98859.88;;;13.77;75.76
45323;BME280;31382;50.200;8.674;2023-04-01T16:56:23;98876.69;;;13.79;75.41
45323;BME280;31382;50.200;8.674;2023-04-01T17:01:29;98883.25;;;13.83;75.29
45323;BME280;31382;50.200;8.674;2023-04-01T17:06:57;98894.41;;;13.75;75.30
45323;BME280;31382;50.200;8.674;2023-04-01T17:12:42;98900.81;;;13.62;75.38
45323;BME280;31382;50.200;8.674;2023-04-01T17:23:34;98926.25;;;13.24;76.31
45323;BME280;31382;50.200;8.674;2023-04-01T17:45:10;98961.19;;;12.26;78.45
45323;BME280;31382;50.200;8.674;2023-04-01T17:55:37;98979.09;;;12.14;78.84
45323;BME280;31382;50.200;8.674;2023-04-01T18:01:03;98984.47;;;12.14;79.11
45323;BME280;31382;50.200;8.674;2023-04-01T18:06:41;98993.56;;;12.20;78.48
45323;BME280;31382;50.200;8.674;2023-04-01T18:17:12;98999.28;;;12.30;78.68
45323;BME280;31382;50.200;8.674;2023-04-01T18:27:33;99028.53;;;12.26;79.06
45323;BME280;31382;50.200;8.674;2023-04-01T18:32:42;99044.66;;;12.33;78.93
45323;BME280;31382;50.200;8.674;2023-04-01T18:38:06;99050.53;;;12.23;79.27
45323;BME280;31382;50.200;8.674;2023-04-01T18:43:21;99059.03;;;12.20;79.29
45323;BME280;31382;50.200;8.674;2023-04-01T18:48:46;99069.78;;;12.27;79.00
45323;BME280;31382;50.200;8.674;2023-04-01T18:54:01;99075.38;;;12.25;78.98
45323;BME280;31382;50.200;8.674;2023-04-01T19:04:26;99090.13;;;12.23;79.19
45323;BME280;31382;50.200;8.674;2023-04-01T19:09:46;99119.56;;;12.18;79.44
45323;BME280;31382;50.200;8.674;2023-04-01T19:14:59;99116.84;;;12.24;78.86
45323;BME280;31382;50.200;8.674;2023-04-01T19:20:25;99131.63;;;12.15;78.93
45323;BME280;31382;50.200;8.674;2023-04-01T19:25:42;99130.41;;;12.04;79.37
45323;BME280;31382;50.200;8.674;2023-04-01T19:30:53;99146.03;;;11.82;79.97
45323;BME280;31382;50.200;8.674;2023-04-01T19:36:06;99142.41;;;11.63;80.58
45323;BME280;31382;50.200;8.674;2023-04-01T19:46:42;99142.56;;;11.68;80.25
45323;BME280;31382;50.200;8.674;2023-04-01T19:52:20;99154.84;;;11.51;80.77
45323;BME280;31382;50.200;8.674;2023-04-01T20:02:58;99168.69;;;11.68;80.09
45323;BME280;31382;50.200;8.674;2023-04-01T20:08:20;99180.47;;;11.74;79.98
45323;BME280;31382;50.200;8.674;2023-04-01T20:14:02;99183.13;;;11.80;79.96
45323;BME280;31382;50.200;8.674;2023-04-01T20:19:07;99203.03;;;11.79;80.04
45323;BME280;31382;50.200;8.674;2023-04-01T20:34:39;99225.84;;;11.57;80.58
45323;BME280;31382;50.200;8.674;2023-04-01T20:56:23;99235.78;;;11.56;80.48
45323;BME280;31382;50.200;8.674;2023-04-01T21:07:11;99252.56;;;11.51;80.29
45323;BME280;31382;50.200;8.674;2023-04-01T21:17:58;99263.31;;;11.65;80.16
45323;BME280;31382;50.200;8.674;2023-04-01T21:33:56;99288.56;;;11.70;80.25
45323;BME280;31382;50.200;8.674;2023-04-01T21:45:10;99295.41;;;11.53;80.45
45323;BME280;31382;50.200;8.674;2023-04-01T21:50:35;99301.63;;;11.47;80.72
45323;BME280;31382;50.200;8.674;2023-04-01T21:56:09;99312.38;;;11.60;80.10
45323;BME280;31382;50.200;8.674;2023-04-01T22:06:55;99324.41;;;11.64;79.91
45323;BME280;31382;50.200;8.674;2023-04-01T22:12:47;99318.81;;;11.59;80.47
45323;BME280;31382;50.200;8.674;2023-04-01T22:18:05;99321.50;;;11.52;80.59
45323;BME280;31382;50.200;8.674;2023-04-01T22:23:26;99330.81;;;11.57;80.10
45323;BME280;31382;50.200;8.674;2023-04-01T22:28:41;99340.13;;;11.61;80.13
45323;BME280;31382;50.200;8.674;2023-04-01T22:34:05;99347.16;;;11.68;80.32
45323;BME280;31382;50.200;8.674;2023-04-01T22:49:37;99361.03;;;11.72;80.21
45323;BME280;31382;50.200;8.674;2023-04-01T22:54:53;99363.72;;;11.72;79.56
45323;BME280;31382;50.200;8.674;2023-04-01T23:00:12;99369.31;;;11.70;80.13
45323;BME280;31382;50.200;8.674;2023-04-01T23:05:17;99370.38;;;11.69;79.91
45323;BME280;31382;50.200;8.674;2023-04-01T23:10:26;99377.63;;;11.69;80.08
45323;BME280;31382;50.200;8.674;2023-04-01T23:15:29;99382.81;;;11.77;79.74
45323;BME280;31382;50.200;8.674;2023-04-01T23:20:59;99388.16;;;11.84;79.12
45323;BME280;31382;50.200;8.674;2023-04-01T23:31:35;99400.81;;;11.90;79.59
45323;BME280;31382;50.200;8.674;2023-04-01T23:36:41;99396.88;;;11.93;79.25
45323;BME280;31382;50.200;8.674;2023-04-01T23:41:43;99403.94;;;11.94;79.73
45323;BME280;31382;50.200;8.674;2023-04-01T23:46:46;99410.75;;;11.83;79.34
45323;BME280;31382;50.200;8.674;2023-04-01T23:51:58;99419.03;;;11.81;79.49
45323;BME280;31382;50.200;8.674;2023-04-01T23:57:05;99425.03;;;11.77;79.75
